sensor_id;sensor_type;location;lat;lon;timestamp;temperature;humidity
29353;DHT22;16344;50.364;8.944;2023-08-06T00:02:06;17.80;1.00
29353;DHT22;16344;50.364;8.944;2023-08-06T00:04:31;17.80;1.00
29353;DHT22;16344;50.364;8.944;2023-08-06T00:06:57;17.70;1.00
29353;DHT22;16344;50.364;8.944;2023-08-06T00:09:22;17.70;1.00
29353;DHT22;16344;50.364;8.944;2023-08-06T00:11:48;17.80;1.00
29353;DHT22;16344;50.364;8.944;2023-08-06T00:14:13;17.80;1.00
29353;DHT22;16344;50.364;8.944;2023-08-06T00:16:43;17.80;1.00
29353;DHT22;16344;50.364;8.944;2023-08-06T00:19:08;17.80;1.00
29353;DHT22;16344;50.364;8.944;2023-08-06T00:21:34;17.90;1.00
29353;DHT22;16344;50.364;8.944;2023-08-06T00:23:59;18.00;1.00
29353;DHT22;16344;50.364;8.944;2023-08-06T00:26:25;18.00;1.00
29353;DHT22;16344;50.364;8.944;2023-08-06T00:28:50;18.00;1.00
29353;DHT22;16344;50.364;8.944;2023-08-06T00:31:16;17.90;1.00
29353;DHT22;16344;50.364;8.944;2023-08-06T00:33:42;17.80;1.00
29353;DHT22;16344;50.364;8.944;2023-08-06T00:36:07;17.60;1.00
29353;DHT22;16344;50.364;8.944;2023-08-06T00:38:33;17.50;1.00
29353;DHT22;16344;50.364;8.944;2023-08-06T00:40:58;17.50;1.00
29353;DHT22;16344;50.364;8.944;2023-08-06T00:43:24;17.50;1.00
29353;DHT22;16344;50.364;8.944;2023-08-06T00:45:49;17.50;1.00
29353;DHT22;16344;50.364;8.944;2023-08-06T00:48:15;17.50;1.00
29353;DHT22;16344;50.364;8.944;2023-08-06T00:50:41;17.40;1.00
29353;DHT22;16344;50.364;8.944;2023-08-06T00:53:07;17.40;1.00
29353;DHT22;16344;50.364;8.944;2023-08-06T00:55:33;17.40;1.00
29353;DHT22;16344;50.364;8.944;2023-08-06T00:57:58;17.40;1.00
29353;DHT22;16344;50.364;8.944;2023-08-06T01:00:24;17.40;1.00
29353;DHT22;16344;50.364;8.944;2023-08-06T01:02:51;17.50;1.00
29353;DHT22;16344;50.364;8.944;2023-08-06T01:05:17;17.40;1.00
29353;DHT22;16344;50.364;8.944;2023-08-06T01:15:58;17.30;1.00
29353;DHT22;16344;50.364;8.944;2023-08-06T01:18:25;17.20;1.00
29353;DHT22;16344;50.364;8.944;2023-08-06T01:20:51;17.20;1.00
29353;DHT22;16344;50.364;8.944;2023-08-06T01:23:16;17.20;2.30
29353;DHT22;16344;50.364;8.944;2023-08-06T01:31:15;17.00;7.20
29353;DHT22;16344;50.364;8.944;2023-08-06T01:33:45;17.00;7.60
29353;DHT22;16344;50.364;8.944;2023-08-06T01:36:14;17.00;6.30
29353;DHT22;16344;50.364;8.944;2023-08-06T01:38:40;17.00;6.30
29353;DHT22;16344;50.364;8.944;2023-08-06T01:41:06;17.10;6.30
29353;DHT22;16344;50.364;8.944;2023-08-06T01:43:31;17.00;5.30
29353;DHT22;16344;50.364;8.944;2023-08-06T01:45:57;16.80;7.60
29353;DHT22;16344;50.364;8.944;2023-08-06T01:48:22;16.90;13.20
29353;DHT22;16344;50.364;8.944;2023-08-06T01:50:48;17.00;7.50
29353;DHT22;16344;50.364;8.944;2023-08-06T01:53:13;17.00;5.70
29353;DHT22;16344;50.364;8.944;2023-08-06T01:55:39;16.90;10.00
29353;DHT22;16344;50.364;8.944;2023-08-06T01:58:04;16.90;5.60
29353;DHT22;16344;50.364;8.944;2023-08-06T02:00:30;17.00;7.70
29353;DHT22;16344;50.364;8.944;2023-08-06T02:02:55;17.00;6.10
29353;DHT22;16344;50.364;8.944;2023-08-06T02:05:21;16.90;11.00
29353;DHT22;16344;50.364;8.944;2023-08-06T02:07:46;16.90;11.20
29353;DHT22;16344;50.364;8.944;2023-08-06T02:10:12;16.90;3.30
29353;DHT22;16344;50.364;8.944;2023-08-06T02:12:37;16.90;9.40
29353;DHT22;16344;50.364;8.944;2023-08-06T02:15:03;16.90;10.60
29353;DHT22;16344;50.364;8.944;2023-08-06T02:17:29;16.90;11.30
29353;DHT22;16344;50.364;8.944;2023-08-06T02:19:54;16.90;6.70
29353;DHT22;16344;50.364;8.944;2023-08-06T02:22:20;16.90;3.60
29353;DHT22;16344;50.364;8.944;2023-08-06T02:24:45;16.80;11.80
29353;DHT22;16344;50.364;8.944;2023-08-06T02:27:11;16.90;12.00
29353;DHT22;16344;50.364;8.944;2023-08-06T02:29:36;16.90;8.90
29353;DHT22;16344;50.364;8.944;2023-08-06T02:32:02;16.90;4.50
29353;DHT22;16344;50.364;8.944;2023-08-06T02:34:28;17.00;5.80
29353;DHT22;16344;50.364;8.944;2023-08-06T02:36:54;17.20;4.90
29353;DHT22;16344;50.364;8.944;2023-08-06T02:39:19;17.10;1.00
29353;DHT22;16344;50.364;8.944;2023-08-06T02:41:45;17.20;1.00
29353;DHT22;16344;50.364;8.944;2023-08-06T02:44:10;17.20;1.00
29353;DHT22;16344;50.364;8.944;2023-08-06T02:46:36;17.30;1.00
29353;DHT22;16344;50.364;8.944;2023-08-06T02:49:01;17.30;1.00
29353;DHT22;16344;50.364;8.944;2023-08-06T02:51:27;17.40;1.00
29353;DHT22;16344;50.364;8.944;2023-08-06T02:53:52;17.40;1.00
29353;DHT22;16344;50.364;8.944;2023-08-06T02:56:18;17.30;1.00
29353;DHT22;16344;50.364;8.944;2023-08-06T02:58:43;17.40;1.00
29353;DHT22;16344;50.364;8.944;2023-08-06T03:01:09;17.30;1.00
29353;DHT22;16344;50.364;8.944;2023-08-06T03:03:35;17.40;1.00
29353;DHT22;16344;50.364;8.944;2023-08-06T03:06:01;17.40;1.00
29353;DHT22;16344;50.364;8.944;2023-08-06T03:08:26;17.40;1.00
29353;DHT22;16344;50.364;8.944;2023-08-06T03:10:52;17.40;1.00
29353;DHT22;16344;50.364;8.944;2023-08-06T03:13:18;17.40;1.00
29353;DHT22;16344;50.364;8.944;2023-08-06T03:15:54;17.40;1.00
29353;DHT22;16344;50.364;8.944;2023-08-06T03:18:21;17.50;1.00
29353;DHT22;16344;50.364;8.944;2023-08-06T03:20:47;17.40;1.00
29353;DHT22;16344;50.364;8.944;2023-08-06T03:23:12;17.40;1.00
29353;DHT22;16344;50.364;8.944;2023-08-06T03:25:38;17.40;1.00
29353;DHT22;16344;50.364;8.944;2023-08-06T03:28:03;17.50;1.00
29353;DHT22;16344;50.364;8.944;2023-08-06T03:30:29;17.50;1.00
29353;DHT22;16344;50.364;8.944;2023-08-06T03:32:54;17.50;1.00
29353;DHT22;16344;50.364;8.944;2023-08-06T03:35:20;17.40;1.00
29353;DHT22;16344;50.364;8.944;2023-08-06T03:37:45;17.30;1.00
29353;DHT22;16344;50.364;8.944;2023-08-06T03:40:11;17.30;1.00
29353;DHT22;16344;50.364;8.944;2023-08-06T03:42:36;17.20;1.00
29353;DHT22;16344;50.364;8.944;2023-08-06T03:45:02;17.10;1.00
29353;DHT22;16344;50.364;8.944;2023-08-06T03:47:28;17.30;1.00
29353;DHT22;16344;50.364;8.944;2023-08-06T03:49:53;17.20;1.00
29353;DHT22;16344;50.364;8.944;2023-08-06T03:52:19;17.00;1.00
29353;DHT22;16344;50.364;8.944;2023-08-06T03:54:45;16.90;1.00
29353;DHT22;16344;50.364;8.944;2023-08-06T03:57:10;16.90;1.80
29353;DHT22;16344;50.364;8.944;2023-08-06T03:59:36;16.90;4.10
29353;DHT22;16344;50.364;8.944;2023-08-06T04:02:01;16.90;1.00
29353;DHT22;16344;50.364;8.944;2023-08-06T04:04:27;16.80;1.00
29353;DHT22;16344;50.364;8.944;2023-08-06T04:06:53;16.90;1.00
29353;DHT22;16344;50.364;8.944;2023-08-06T04:09:18;16.80;1.00
29353;DHT22;16344;50.364;8.944;2023-08-06T04:11:44;16.70;1.00
29353;DHT22;16344;50.364;8.944;2023-08-06T04:14:09;16.70;5.80
29353;DHT22;16344;50.364;8.944;2023-08-06T04:16:35;16.70;6.90
29353;DHT22;16344;50.364;8.944;2023-08-06T04:19:00;16.80;2.10
29353;DHT22;16344;50.364;8.944;2023-08-06T04:21:26;16.70;6.40
29353;DHT22;16344;50.364;8.944;2023-08-06T04:23:51;16.70;3.30
29353;DHT22;16344;50.364;8.944;2023-08-06T04:26:17;16.70;5.40
29353;DHT22;16344;50.364;8.944;2023-08-06T04:28:42;16.80;6.80
29353;DHT22;16344;50.364;8.944;2023-08-06T04:31:08;16.80;5.00
29353;DHT22;16344;50.364;8.944;2023-08-06T04:33:34;16.80;6.70
29353;DHT22;16344;50.364;8.944;2023-08-06T04:35:59;16.70;7.10
29353;DHT22;16344;50.364;8.944;2023-08-06T04:38:25;16.70;12.80
29353;DHT22;16344;50.364;8.944;2023-08-06T04:40:51;16.80;10.40
29353;DHT22;16344;50.364;8.944;2023-08-06T04:43:16;16.90;7.00
29353;DHT22;16344;50.364;8.944;2023-08-06T04:45:49;16.90;1.00
29353;DHT22;16344;50.364;8.944;2023-08-06T04:48:15;17.00;1.00
29353;DHT22;16344;50.364;8.944;2023-08-06T04:50:45;16.90;3.40
29353;DHT22;16344;50.364;8.944;2023-08-06T04:53:10;17.00;3.60
29353;DHT22;16344;50.364;8.944;2023-08-06T04:55:36;16.90;1.00
29353;DHT22;16344;50.364;8.944;2023-08-06T04:58:02;17.00;2.10
29353;DHT22;16344;50.364;8.944;2023-08-06T05:00:27;17.10;6.40
29353;DHT22;16344;50.364;8.944;2023-08-06T05:02:53;17.00;1.00
29353;DHT22;16344;50.364;8.944;2023-08-06T05:05:18;16.90;4.50
29353;DHT22;16344;50.364;8.944;2023-08-06T05:07:49;16.90;6.10
29353;DHT22;16344;50.364;8.944;2023-08-06T05:10:15;16.90;7.50
29353;DHT22;16344;50.364;8.944;2023-08-06T05:12:41;16.90;9.30
29353;DHT22;16344;50.364;8.944;2023-08-06T05:15:07;16.90;8.00
29353;DHT22;16344;50.364;8.944;2023-08-06T05:17:33;16.90;5.50
29353;DHT22;16344;50.364;8.944;2023-08-06T05:19:59;17.00;9.70
29353;DHT22;16344;50.364;8.944;2023-08-06T05:22:25;16.90;4.50
29353;DHT22;16344;50.364;8.944;2023-08-06T05:24:50;17.00;4.30
29353;DHT22;16344;50.364;8.944;2023-08-06T05:27:16;16.90;5.70
29353;DHT22;16344;50.364;8.944;2023-08-06T05:29:44;17.00;6.40
29353;DHT22;16344;50.364;8.944;2023-08-06T05:32:09;16.90;1.00
29353;DHT22;16344;50.364;8.944;2023-08-06T05:34:35;16.90;1.00
29353;DHT22;16344;50.364;8.944;2023-08-06T05:37:01;17.10;1.00
29353;DHT22;16344;50.364;8.944;2023-08-06T05:39:26;17.40;1.00
29353;DHT22;16344;50.364;8.944;2023-08-06T05:41:52;17.50;1.00
29353;DHT22;16344;50.364;8.944;2023-08-06T05:44:17;17.60;1.00
29353;DHT22;16344;50.364;8.944;2023-08-06T05:46:43;18.00;1.00
29353;DHT22;16344;50.364;8.944;2023-08-06T05:49:08;18.10;1.00
29353;DHT22;16344;50.364;8.944;2023-08-06T05:51:34;17.90;1.00
29353;DHT22;16344;50.364;8.944;2023-08-06T05:53:59;17.70;1.00
29353;DHT22;16344;50.364;8.944;2023-08-06T05:56:25;17.50;1.00
29353;DHT22;16344;50.364;8.944;2023-08-06T05:58:50;17.40;1.00
29353;DHT22;16344;50.364;8.944;2023-08-06T06:01:18;17.30;1.00
29353;DHT22;16344;50.364;8.944;2023-08-06T06:03:44;17.20;1.00
29353;DHT22;16344;50.364;8.944;2023-08-06T06:06:09;17.10;1.00
29353;DHT22;16344;50.364;8.944;2023-08-06T06:08:34;17.10;1.00
29353;DHT22;16344;50.364;8.944;2023-08-06T06:11:00;17.00;1.00
29353;DHT22;16344;50.364;8.944;2023-08-06T06:13:25;17.00;1.40
29353;DHT22;16344;50.364;8.944;2023-08-06T06:15:54;17.00;4.10
29353;DHT22;16344;50.364;8.944;2023-08-06T06:18:21;16.90;1.60
29353;DHT22;16344;50.364;8.944;2023-08-06T06:20:47;16.90;3.50
29353;DHT22;16344;50.364;8.944;2023-08-06T06:23:12;17.00;6.60
29353;DHT22;16344;50.364;8.944;2023-08-06T06:25:50;17.00;9.40
29353;DHT22;16344;50.364;8.944;2023-08-06T06:28:19;17.10;12.90
29353;DHT22;16344;50.364;8.944;2023-08-06T06:30:45;17.00;7.80
29353;DHT22;16344;50.364;8.944;2023-08-06T06:33:10;16.90;15.10
29353;DHT22;16344;50.364;8.944;2023-08-06T06:35:36;16.80;18.40
29353;DHT22;16344;50.364;8.944;2023-08-06T06:38:02;16.80;20.20
29353;DHT22;16344;50.364;8.944;2023-08-06T06:40:28;16.70;23.80
29353;DHT22;16344;50.364;8.944;2023-08-06T06:42:53;16.70;23.00
29353;DHT22;16344;50.364;8.944;2023-08-06T06:45:19;16.60;25.30
29353;DHT22;16344;50.364;8.944;2023-08-06T06:47:44;16.60;26.00
29353;DHT22;16344;50.364;8.944;2023-08-06T06:50:10;16.60;23.10
29353;DHT22;16344;50.364;8.944;2023-08-06T06:52:35;16.70;25.50
29353;DHT22;16344;50.364;8.944;2023-08-06T06:55:01;16.70;25.80
29353;DHT22;16344;50.364;8.944;2023-08-06T06:57:26;16.70;25.70
29353;DHT22;16344;50.364;8.944;2023-08-06T06:59:52;16.90;27.30
29353;DHT22;16344;50.364;8.944;2023-08-06T07:02:17;16.90;16.40
29353;DHT22;16344;50.364;8.944;2023-08-06T07:04:43;16.90;20.20
29353;DHT22;16344;50.364;8.944;2023-08-06T07:07:08;17.00;24.90
29353;DHT22;16344;50.364;8.944;2023-08-06T07:09:34;16.90;20.70
29353;DHT22;16344;50.364;8.944;2023-08-06T07:12:00;16.90;23.70
29353;DHT22;16344;50.364;8.944;2023-08-06T07:14:28;16.90;27.50
29353;DHT22;16344;50.364;8.944;2023-08-06T07:16:54;17.00;17.80
29353;DHT22;16344;50.364;8.944;2023-08-06T07:19:20;16.90;20.60
29353;DHT22;16344;50.364;8.944;2023-08-06T07:21:46;17.00;24.00
29353;DHT22;16344;50.364;8.944;2023-08-06T07:24:11;16.90;17.20
29353;DHT22;16344;50.364;8.944;2023-08-06T07:26:37;16.90;17.80
29353;DHT22;16344;50.364;8.944;2023-08-06T07:29:03;17.00;18.50
29353;DHT22;16344;50.364;8.944;2023-08-06T07:31:28;16.90;13.50
29353;DHT22;16344;50.364;8.944;2023-08-06T07:33:54;16.90;14.40
29353;DHT22;16344;50.364;8.944;2023-08-06T07:36:20;16.80;9.00
29353;DHT22;16344;50.364;8.944;2023-08-06T07:38:45;16.90;12.40
29353;DHT22;16344;50.364;8.944;2023-08-06T07:41:11;17.00;19.10
29353;DHT22;16344;50.364;8.944;2023-08-06T07:43:36;16.90;9.50
29353;DHT22;16344;50.364;8.944;2023-08-06T07:46:02;16.80;9.90
29353;DHT22;16344;50.364;8.944;2023-08-06T07:48:28;16.80;8.70
29353;DHT22;16344;50.364;8.944;2023-08-06T07:50:54;16.80;11.90
29353;DHT22;16344;50.364;8.944;2023-08-06T07:53:24;16.80;19.30
29353;DHT22;16344;50.364;8.944;2023-08-06T07:55:53;16.80;21.50
29353;DHT22;16344;50.364;8.944;2023-08-06T07:58:20;16.90;12.70
29353;DHT22;16344;50.364;8.944;2023-08-06T08:00:46;17.00;25.30
29353;DHT22;16344;50.364;8.944;2023-08-06T08:03:12;16.90;15.80
29353;DHT22;16344;50.364;8.944;2023-08-06T08:05:42;16.90;18.60
29353;DHT22;16344;50.364;8.944;2023-08-06T08:08:08;17.00;23.50
29353;DHT22;16344;50.364;8.944;2023-08-06T08:10:34;17.10;26.30
29353;DHT22;16344;50.364;8.944;2023-08-06T08:13:00;17.10;26.10
29353;DHT22;16344;50.364;8.944;2023-08-06T08:15:28;17.10;23.10
29353;DHT22;16344;50.364;8.944;2023-08-06T08:17:54;17.10;22.80
29353;DHT22;16344;50.364;8.944;2023-08-06T08:20:21;17.00;22.30
29353;DHT22;16344;50.364;8.944;2023-08-06T08:22:47;16.90;22.40
29353;DHT22;16344;50.364;8.944;2023-08-06T08:25:13;16.90;29.40
29353;DHT22;16344;50.364;8.944;2023-08-06T08:27:38;16.90;30.10
29353;DHT22;16344;50.364;8.944;2023-08-06T08:30:04;16.90;25.50
29353;DHT22;16344;50.364;8.944;2023-08-06T08:32:30;16.90;30.50
29353;DHT22;16344;50.364;8.944;2023-08-06T08:34:56;16.90;32.20
29353;DHT22;16344;50.364;8.944;2023-08-06T08:37:21;16.90;36.10
29353;DHT22;16344;50.364;8.944;2023-08-06T08:39:47;17.00;37.00
29353;DHT22;16344;50.364;8.944;2023-08-06T08:42:13;16.90;29.60
29353;DHT22;16344;50.364;8.944;2023-08-06T08:44:40;16.90;34.60
29353;DHT22;16344;50.364;8.944;2023-08-06T08:47:07;16.90;31.90
29353;DHT22;16344;50.364;8.944;2023-08-06T08:49:35;17.00;33.20
29353;DHT22;16344;50.364;8.944;2023-08-06T08:52:02;17.00;32.00
29353;DHT22;16344;50.364;8.944;2023-08-06T08:54:28;17.10;33.30
29353;DHT22;16344;50.364;8.944;2023-08-06T08:56:56;17.10;29.50
29353;DHT22;16344;50.364;8.944;2023-08-06T08:59:22;17.00;27.20
29353;DHT22;16344;50.364;8.944;2023-08-06T09:01:48;17.00;31.00
29353;DHT22;16344;50.364;8.944;2023-08-06T09:04:17;17.00;33.10
29353;DHT22;16344;50.364;8.944;2023-08-06T09:06:50;17.00;26.20
29353;DHT22;16344;50.364;8.944;2023-08-06T09:09:36;16.90;33.80
29353;DHT22;16344;50.364;8.944;2023-08-06T09:12:15;16.90;38.80
29353;DHT22;16344;50.364;8.944;2023-08-06T09:14:41;17.10;45.90
29353;DHT22;16344;50.364;8.944;2023-08-06T09:17:07;17.30;42.90
29353;DHT22;16344;50.364;8.944;2023-08-06T09:19:34;17.50;38.60
29353;DHT22;16344;50.364;8.944;2023-08-06T09:22:00;17.80;30.50
29353;DHT22;16344;50.364;8.944;2023-08-06T09:24:25;18.10;28.90
29353;DHT22;16344;50.364;8.944;2023-08-06T09:26:54;18.40;21.50
29353;DHT22;16344;50.364;8.944;2023-08-06T09:29:20;18.40;1.00
29353;DHT22;16344;50.364;8.944;2023-08-06T09:31:50;18.60;14.50
29353;DHT22;16344;50.364;8.944;2023-08-06T09:34:23;18.80;1.00
29353;DHT22;16344;50.364;8.944;2023-08-06T09:36:52;19.00;1.00
29353;DHT22;16344;50.364;8.944;2023-08-06T09:39:27;19.10;1.00
29353;DHT22;16344;50.364;8.944;2023-08-06T09:42:00;19.20;1.00
29353;DHT22;16344;50.364;8.944;2023-08-06T09:44:28;19.10;1.00
29353;DHT22;16344;50.364;8.944;2023-08-06T09:46:58;19.10;1.00
29353;DHT22;16344;50.364;8.944;2023-08-06T09:51:59;19.40;1.00
29353;DHT22;16344;50.364;8.944;2023-08-06T09:54:26;19.60;1.00
29353;DHT22;16344;50.364;8.944;2023-08-06T09:56:53;19.70;1.00
29353;DHT22;16344;50.364;8.944;2023-08-06T09:59:19;19.70;1.00
29353;DHT22;16344;50.364;8.944;2023-08-06T10:01:45;20.00;1.00
29353;DHT22;16344;50.364;8.944;2023-08-06T10:04:14;20.20;1.00
29353;DHT22;16344;50.364;8.944;2023-08-06T10:06:42;20.40;1.00
29353;DHT22;16344;50.364;8.944;2023-08-06T10:09:08;20.60;1.00
29353;DHT22;16344;50.364;8.944;2023-08-06T10:11:36;20.70;1.00
29353;DHT22;16344;50.364;8.944;2023-08-06T10:14:20;20.90;1.00
29353;DHT22;16344;50.364;8.944;2023-08-06T10:16:47;21.20;1.00
29353;DHT22;16344;50.364;8.944;2023-08-06T10:19:13;21.00;99.90
29353;DHT22;16344;50.364;8.944;2023-08-06T10:21:40;20.90;99.90
29353;DHT22;16344;50.364;8.944;2023-08-06T10:24:09;21.00;99.90
29353;DHT22;16344;50.364;8.944;2023-08-06T10:26:37;21.00;99.90
29353;DHT22;16344;50.364;8.944;2023-08-06T10:29:35;20.90;99.90
29353;DHT22;16344;50.364;8.944;2023-08-06T10:32:02;20.80;99.90
29353;DHT22;16344;50.364;8.944;2023-08-06T10:34:57;20.70;1.00
29353;DHT22;16344;50.364;8.944;2023-08-06T10:37:23;20.80;1.00
29353;DHT22;16344;50.364;8.944;2023-08-06T10:39:50;20.50;99.90
29353;DHT22;16344;50.364;8.944;2023-08-06T10:42:20;20.50;99.90
29353;DHT22;16344;50.364;8.944;2023-08-06T10:45:14;20.60;1.00
29353;DHT22;16344;50.364;8.944;2023-08-06T10:47:40;20.60;99.90
29353;DHT22;16344;50.364;8.944;2023-08-06T10:50:16;20.50;99.90
29353;DHT22;16344;50.364;8.944;2023-08-06T10:52:46;20.30;1.00
29353;DHT22;16344;50.364;8.944;2023-08-06T10:55:33;20.00;1.00
29353;DHT22;16344;50.364;8.944;2023-08-06T10:57:58;19.70;1.00
29353;DHT22;16344;50.364;8.944;2023-08-06T11:00:24;19.50;1.00
29353;DHT22;16344;50.364;8.944;2023-08-06T11:02:51;19.40;1.00
29353;DHT22;16344;50.364;8.944;2023-08-06T11:05:17;19.30;1.00
29353;DHT22;16344;50.364;8.944;2023-08-06T11:07:43;19.20;1.00
29353;DHT22;16344;50.364;8.944;2023-08-06T11:10:13;19.10;1.00
29353;DHT22;16344;50.364;8.944;2023-08-06T11:12:39;19.10;1.00
29353;DHT22;16344;50.364;8.944;2023-08-06T11:15:05;19.10;1.00
29353;DHT22;16344;50.364;8.944;2023-08-06T11:17:33;19.10;1.00
29353;DHT22;16344;50.364;8.944;2023-08-06T11:20:05;19.10;5.20
29353;DHT22;16344;50.364;8.944;2023-08-06T11:22:31;19.10;5.20
29353;DHT22;16344;50.364;8.944;2023-08-06T11:24:56;18.90;1.00
29353;DHT22;16344;50.364;8.944;2023-08-06T11:27:22;18.90;1.00
29353;DHT22;16344;50.364;8.944;2023-08-06T11:29:48;19.00;1.00
29353;DHT22;16344;50.364;8.944;2023-08-06T11:32:13;19.00;2.20
29353;DHT22;16344;50.364;8.944;2023-08-06T11:34:39;19.00;1.00
29353;DHT22;16344;50.364;8.944;2023-08-06T11:37:06;19.10;1.00
29353;DHT22;16344;50.364;8.944;2023-08-06T11:39:36;19.10;1.00
29353;DHT22;16344;50.364;8.944;2023-08-06T11:42:03;19.00;1.00
29353;DHT22;16344;50.364;8.944;2023-08-06T11:44:31;18.80;1.00
29353;DHT22;16344;50.364;8.944;2023-08-06T11:47:00;18.70;1.00
29353;DHT22;16344;50.364;8.944;2023-08-06T11:52:20;19.10;1.00
29353;DHT22;16344;50.364;8.944;2023-08-06T11:54:47;19.10;3.20
29353;DHT22;16344;50.364;8.944;2023-08-06T11:57:13;19.20;1.00
29353;DHT22;16344;50.364;8.944;2023-08-06T11:59:39;19.30;1.00
29353;DHT22;16344;50.364;8.944;2023-08-06T12:02:07;19.30;1.00
29353;DHT22;16344;50.364;8.944;2023-08-06T12:04:59;19.20;1.50
29353;DHT22;16344;50.364;8.944;2023-08-06T12:07:32;19.00;3.20
29353;DHT22;16344;50.364;8.944;2023-08-06T12:09:58;18.80;13.80
29353;DHT22;16344;50.364;8.944;2023-08-06T12:12:24;18.70;18.30
29353;DHT22;16344;50.364;8.944;2023-08-06T12:14:50;18.70;13.70
29353;DHT22;16344;50.364;8.944;2023-08-06T12:17:15;18.70;1.00
29353;DHT22;16344;50.364;8.944;2023-08-06T12:19:41;18.70;1.00
29353;DHT22;16344;50.364;8.944;2023-08-06T12:22:06;18.70;1.00
29353;DHT22;16344;50.364;8.944;2023-08-06T12:24:32;18.80;1.00
29353;DHT22;16344;50.364;8.944;2023-08-06T12:26:58;18.60;1.00
29353;DHT22;16344;50.364;8.944;2023-08-06T12:29:25;18.50;4.70
29353;DHT22;16344;50.364;8.944;2023-08-06T12:31:51;18.10;1.00
29353;DHT22;16344;50.364;8.944;2023-08-06T12:34:16;17.70;1.00
29353;DHT22;16344;50.364;8.944;2023-08-06T12:36:42;17.30;14.00
29353;DHT22;16344;50.364;8.944;2023-08-06T12:39:07;17.00;22.20
29353;DHT22;16344;50.364;8.944;2023-08-06T12:41:33;16.80;23.30
29353;DHT22;16344;50.364;8.944;2023-08-06T12:43:58;16.80;27.30
29353;DHT22;16344;50.364;8.944;2023-08-06T12:46:24;16.80;31.40
29353;DHT22;16344;50.364;8.944;2023-08-06T12:48:49;16.60;30.20
29353;DHT22;16344;50.364;8.944;2023-08-06T12:51:15;16.60;25.90
29353;DHT22;16344;50.364;8.944;2023-08-06T12:53:40;16.50;21.60
29353;DHT22;16344;50.364;8.944;2023-08-06T12:56:06;16.50;22.60
29353;DHT22;16344;50.364;8.944;2023-08-06T12:58:31;16.40;26.10
29353;DHT22;16344;50.364;8.944;2023-08-06T13:00:57;16.40;21.70
29353;DHT22;16344;50.364;8.944;2023-08-06T13:03:22;16.40;21.40
29353;DHT22;16344;50.364;8.944;2023-08-06T13:05:48;16.30;22.50
29353;DHT22;16344;50.364;8.944;2023-08-06T13:08:13;16.30;23.30
29353;DHT22;16344;50.364;8.944;2023-08-06T13:10:39;16.30;26.40
29353;DHT22;16344;50.364;8.944;2023-08-06T13:13:05;16.10;22.90
29353;DHT22;16344;50.364;8.944;2023-08-06T13:15:30;16.10;26.10
29353;DHT22;16344;50.364;8.944;2023-08-06T13:17:56;16.10;30.90
29353;DHT22;16344;50.364;8.944;2023-08-06T13:20:21;16.10;33.50
29353;DHT22;16344;50.364;8.944;2023-08-06T13:22:48;16.20;32.60
29353;DHT22;16344;50.364;8.944;2023-08-06T13:25:15;16.20;28.80
29353;DHT22;16344;50.364;8.944;2023-08-06T13:27:42;16.20;33.10
29353;DHT22;16344;50.364;8.944;2023-08-06T13:30:09;16.20;29.10
29353;DHT22;16344;50.364;8.944;2023-08-06T13:32:35;16.10;22.40
29353;DHT22;16344;50.364;8.944;2023-08-06T13:35:03;16.10;24.30
29353;DHT22;16344;50.364;8.944;2023-08-06T13:37:29;16.00;23.50
29353;DHT22;16344;50.364;8.944;2023-08-06T13:39:54;15.90;26.20
29353;DHT22;16344;50.364;8.944;2023-08-06T13:42:20;15.80;24.70
29353;DHT22;16344;50.364;8.944;2023-08-06T13:44:45;15.80;25.40
29353;DHT22;16344;50.364;8.944;2023-08-06T13:47:11;15.80;25.40
29353;DHT22;16344;50.364;8.944;2023-08-06T13:49:36;15.70;26.00
29353;DHT22;16344;50.364;8.944;2023-08-06T13:52:02;15.80;18.50
29353;DHT22;16344;50.364;8.944;2023-08-06T13:54:28;15.80;21.50
29353;DHT22;16344;50.364;8.944;2023-08-06T13:56:53;15.80;24.00
29353;DHT22;16344;50.364;8.944;2023-08-06T13:59:19;15.90;20.40
29353;DHT22;16344;50.364;8.944;2023-08-06T14:01:45;15.90;21.30
29353;DHT22;16344;50.364;8.944;2023-08-06T14:04:11;15.90;16.20
29353;DHT22;16344;50.364;8.944;2023-08-06T14:06:37;15.90;21.40
29353;DHT22;16344;50.364;8.944;2023-08-06T14:09:02;15.90;20.80
29353;DHT22;16344;50.364;8.944;2023-08-06T14:11:28;15.90;22.20
29353;DHT22;16344;50.364;8.944;2023-08-06T14:13:53;15.90;23.70
29353;DHT22;16344;50.364;8.944;2023-08-06T14:16:19;15.90;23.00
29353;DHT22;16344;50.364;8.944;2023-08-06T14:18:44;15.90;21.90
29353;DHT22;16344;50.364;8.944;2023-08-06T14:21:10;15.80;20.10
29353;DHT22;16344;50.364;8.944;2023-08-06T14:23:36;15.90;22.50
29353;DHT22;16344;50.364;8.944;2023-08-06T14:26:01;16.00;23.50
29353;DHT22;16344;50.364;8.944;2023-08-06T14:28:27;16.10;22.30
29353;DHT22;16344;50.364;8.944;2023-08-06T14:30:52;16.10;21.10
29353;DHT22;16344;50.364;8.944;2023-08-06T14:33:18;16.20;15.50
29353;DHT22;16344;50.364;8.944;2023-08-06T14:35:43;16.00;13.20
29353;DHT22;16344;50.364;8.944;2023-08-06T14:38:09;15.90;17.80
29353;DHT22;16344;50.364;8.944;2023-08-06T14:40:36;15.80;22.50
29353;DHT22;16344;50.364;8.944;2023-08-06T14:43:06;15.90;21.10
29353;DHT22;16344;50.364;8.944;2023-08-06T14:45:32;15.90;14.70
29353;DHT22;16344;50.364;8.944;2023-08-06T14:47:57;15.90;19.70
29353;DHT22;16344;50.364;8.944;2023-08-06T14:50:23;15.90;18.00
29353;DHT22;16344;50.364;8.944;2023-08-06T14:52:48;15.90;13.20
29353;DHT22;16344;50.364;8.944;2023-08-06T14:55:22;15.90;12.30
29353;DHT22;16344;50.364;8.944;2023-08-06T14:57:48;15.90;16.10
29353;DHT22;16344;50.364;8.944;2023-08-06T15:00:13;15.90;16.80
29353;DHT22;16344;50.364;8.944;2023-08-06T15:02:39;16.00;17.50
29353;DHT22;16344;50.364;8.944;2023-08-06T15:05:05;15.90;16.50
29353;DHT22;16344;50.364;8.944;2023-08-06T15:07:30;16.00;16.10
29353;DHT22;16344;50.364;8.944;2023-08-06T15:09:58;16.10;15.10
29353;DHT22;16344;50.364;8.944;2023-08-06T15:12:24;16.10;16.80
29353;DHT22;16344;50.364;8.944;2023-08-06T15:14:49;16.10;20.80
29353;DHT22;16344;50.364;8.944;2023-08-06T15:17:15;16.20;21.30
29353;DHT22;16344;50.364;8.944;2023-08-06T15:19:41;16.20;9.40
29353;DHT22;16344;50.364;8.944;2023-08-06T15:22:07;16.10;12.70
29353;DHT22;16344;50.364;8.944;2023-08-06T15:24:35;16.00;9.00
29353;DHT22;16344;50.364;8.944;2023-08-06T15:27:03;16.00;12.10
29353;DHT22;16344;50.364;8.944;2023-08-06T15:29:29;16.00;8.40
29353;DHT22;16344;50.364;8.944;2023-08-06T15:31:54;16.00;13.90
29353;DHT22;16344;50.364;8.944;2023-08-06T15:34:20;16.00;15.50
29353;DHT22;16344;50.364;8.944;2023-08-06T15:36:45;16.00;16.40
29353;DHT22;16344;50.364;8.944;2023-08-06T15:39:11;16.10;19.00
29353;DHT22;16344;50.364;8.944;2023-08-06T15:41:37;16.00;14.40
29353;DHT22;16344;50.364;8.944;2023-08-06T15:44:02;16.00;20.20
29353;DHT22;16344;50.364;8.944;2023-08-06T15:46:28;15.90;17.60
29353;DHT22;16344;50.364;8.944;2023-08-06T15:48:53;15.90;17.10
29353;DHT22;16344;50.364;8.944;2023-08-06T15:51:19;15.90;21.20
29353;DHT22;16344;50.364;8.944;2023-08-06T15:53:44;15.90;22.80
29353;DHT22;16344;50.364;8.944;2023-08-06T15:56:10;15.90;23.00